TimeMDT,TemperatureF,Dew PointF,Humidity,Sea Level PressureIn,VisibilityMPH,Wind Direction,Wind SpeedMPH,Gust SpeedMPH,PrecipitationIn,Events,Conditions,WindDirDegrees,DateUTC
12:16 AM,26.6,24.8,93,30.25,10.0,Calm,Calm,-,N/A,,Overcast,0,2013-09-28 06:16:00
12:36 AM,26.6,24.8,93,30.26,10.0,Calm,Calm,-,N/A,,Overcast,0,2013-09-28 06:36:00
12:56 AM,26.6,24.8,93,30.26,10.0,Calm,Calm,-,N/A,,Overcast,0,2013-09-28 06:56:00
1:16 AM,26.6,24.8,93,30.27,10.0,Calm,Calm,-,N/A,,Overcast,0,2013-09-28 07:16:00
1:36 AM,26.6,24.8,93,30.28,10.0,Calm,Calm,-,N/A,,Overcast,0,2013-09-28 07:36:00
1:56 AM,26.6,24.8,93,30.27,10.0,Calm,Calm,-,N/A,,Overcast,0,2013-09-28 07:56:00
2:16 AM,26.6,24.8,93,30.29,10.0,Calm,Calm,-,N/A,,Overcast,0,2013-09-28 08:16:00
2:36 AM,26.6,24.8,93,30.28,10.0,Calm,Calm,-,N/A,,Overcast,0,2013-09-28 08:36:00
2:56 AM,26.6,24.8,93,30.29,10.0,Calm,Calm,-,N/A,,Overcast,0,2013-09-28 08:56:00
3:16 AM,26.6,24.8,93,30.29,10.0,Calm,Calm,-,N/A,,Overcast,0,2013-09-28 09:16:00
3:36 AM,26.6,23.0,86,30.30,10.0,Calm,Calm,-,N/A,,Overcast,0,2013-09-28 09:36:00
3:56 AM,24.8,23.0,93,30.29,10.0,Calm,Calm,-,N/A,,Overcast,0,2013-09-28 09:56:00
4:16 AM,24.8,23.0,93,30.29,10.0,Calm,Calm,-,N/A,,Mostly Cloudy,0,2013-09-28 10:16:00
4:36 AM,23.0,21.2,93,30.30,10.0,Calm,Calm,-,N/A,,Scattered Clouds,0,2013-09-28 10:36:00
4:56 AM,23.0,21.2,93,30.31,10.0,Calm,Calm,-,N/A,,Scattered Clouds,0,2013-09-28 10:56:00
5:16 AM,23.0,21.2,93,30.31,10.0,Calm,Calm,-,N/A,,Mostly Cloudy,0,2013-09-28 11:16:00
5:36 AM,23.0,21.2,93,30.32,10.0,Calm,Calm,-,N/A,,Scattered Clouds,0,2013-09-28 11:36:00
5:56 AM,23.0,21.2,93,30.32,10.0,Calm,Calm,-,N/A,,Clear,0,2013-09-28 11:56:00
6:16 AM,23.0,21.2,93,30.32,10.0,Calm,Calm,-,N/A,,Clear,0,2013-09-28 12:16:00
6:36 AM,23.0,21.2,93,30.33,10.0,Calm,Calm,-,N/A,,Clear,0,2013-09-28 12:36:00
6:56 AM,23.0,21.2,93,30.33,10.0,Calm,Calm,-,N/A,,Clear,0,2013-09-28 12:56:00
7:16 AM,23.0,21.2,93,30.34,10.0,Calm,Calm,-,N/A,,Clear,0,2013-09-28 13:16:00
7:36 AM,23.0,21.2,93,30.35,10.0,Calm,Calm,-,N/A,,Clear,0,2013-09-28 13:36:00
7:57 AM,23.0,21.2,93,30.36,10.0,Calm,Calm,-,N/A,,Clear,0,2013-09-28 13:57:00
8:17 AM,24.8,23.0,93,30.37,10.0,Calm,Calm,-,N/A,,Clear,0,2013-09-28 14:17:00
8:36 AM,24.8,23.0,93,30.37,10.0,Calm,Calm,-,N/A,,Clear,0,2013-09-28 14:36:00
8:56 AM,26.6,23.0,86,30.38,10.0,Calm,Calm,-,N/A,,Clear,0,2013-09-28 14:56:00
9:17 AM,26.6,24.8,93,30.38,10.0,Calm,Calm,-,N/A,,Clear,0,2013-09-28 15:17:00
9:37 AM,28.4,23.0,80,30.39,10.0,Calm,Calm,-,N/A,,Clear,0,2013-09-28 15:37:00
9:57 AM,28.4,26.6,93,30.39,10.0,Calm,Calm,-,N/A,,Clear,0,2013-09-28 15:57:00
10:17 AM,30.2,26.6,86,30.40,10.0,Calm,Calm,-,N/A,,Clear,0,2013-09-28 16:17:00
10:37 AM,32.0,26.6,80,30.40,10.0,Calm,Calm,-,N/A,,Clear,0,2013-09-28 16:37:00
10:57 AM,32.0,28.4,87,30.40,10.0,Calm,Calm,-,N/A,,Clear,0,2013-09-28 16:57:00
11:17 AM,33.8,28.4,81,30.40,10.0,Calm,Calm,-,N/A,,Clear,0,2013-09-28 17:17:00
11:36 AM,32.0,23.0,69,30.40,10.0,Calm,Calm,-,N/A,,Clear,0,2013-09-28 17:36:00
11:57 AM,33.8,28.4,81,30.40,10.0,Calm,Calm,-,N/A,,Clear,0,2013-09-28 17:57:00
12:16 PM,35.6,32.0,87,30.41,10.0,Calm,Calm,-,N/A,,Clear,0,2013-09-28 18:16:00
12:37 PM,35.6,32.0,87,30.41,10.0,Calm,Calm,-,N/A,,Scattered Clouds,0,2013-09-28 18:37:00
12:57 PM,37.4,32.0,81,30.42,10.0,Calm,Calm,-,N/A,,Clear,0,2013-09-28 18:57:00
1:16 PM,37.4,32.0,81,30.42,10.0,Calm,Calm,-,N/A,,Clear,0,2013-09-28 19:16:00
1:36 PM,37.4,33.8,87,30.41,10.0,Calm,Calm,-,N/A,,Clear,0,2013-09-28 19:36:00
1:57 PM,37.4,33.8,87,30.41,10.0,Calm,Calm,-,N/A,,Clear,0,2013-09-28 19:57:00
2:17 PM,39.2,33.8,81,30.41,10.0,Calm,Calm,-,N/A,,Clear,0,2013-09-28 20:17:00
2:37 PM,41.0,35.6,81,30.41,10.0,Calm,Calm,-,N/A,,Clear,0,2013-09-28 20:37:00
2:56 PM,41.0,35.6,81,30.42,10.0,Calm,Calm,-,N/A,,Clear,0,2013-09-28 20:56:00
3:17 PM,41.0,37.4,87,30.42,10.0,Calm,Calm,-,N/A,,Clear,0,2013-09-28 21:17:00
3:37 PM,41.0,37.4,87,30.42,10.0,Calm,Calm,-,N/A,,Clear,0,2013-09-28 21:37:00
3:57 PM,42.8,35.6,76,30.42,10.0,Calm,Calm,-,N/A,,Clear,0,2013-09-28 21:57:00
4:17 PM,42.8,37.4,81,30.42,10.0,Calm,Calm,-,N/A,,Clear,0,2013-09-28 22:17:00
4:37 PM,41.0,37.4,87,30.42,10.0,Calm,Calm,-,N/A,,Clear,0,2013-09-28 22:37:00
4:57 PM,41.0,35.6,81,30.43,10.0,Calm,Calm,-,N/A,,Clear,0,2013-09-28 22:57:00
5:17 PM,41.0,35.6,81,30.43,10.0,Calm,Calm,-,N/A,,Clear,0,2013-09-28 23:17:00
5:37 PM,39.2,35.6,87,30.43,10.0,Calm,Calm,-,N/A,,Clear,0,2013-09-28 23:37:00
5:57 PM,37.4,35.6,93,30.44,10.0,Calm,Calm,-,N/A,,Clear,0,2013-09-28 23:57:00
6:17 PM,37.4,33.8,87,30.43,10.0,Calm,Calm,-,N/A,,Clear,0,2013-09-29 00:17:00
6:37 PM,35.6,33.8,93,30.43,10.0,Calm,Calm,-,N/A,,Clear,0,2013-09-29 00:37:00
6:57 PM,33.8,33.8,100,30.43,5.0,Calm,Calm,-,N/A,,Clear,0,2013-09-29 00:57:00
7:16 PM,33.8,32.0,93,30.43,10.0,Calm,Calm,-,N/A,,Clear,0,2013-09-29 01:16:00
7:36 PM,33.8,32.0,93,30.43,10.0,Calm,Calm,-,N/A,,Clear,0,2013-09-29 01:36:00
7:56 PM,33.8,32.0,93,30.43,10.0,Calm,Calm,-,N/A,,Clear,0,2013-09-29 01:56:00
8:16 PM,32.0,32.0,100,30.44,10.0,Calm,Calm,-,N/A,,Clear,0,2013-09-29 02:16:00
8:37 PM,32.0,30.2,93,30.44,10.0,Calm,Calm,-,N/A,,Clear,0,2013-09-29 02:37:00
8:57 PM,32.0,30.2,93,30.45,10.0,Calm,Calm,-,N/A,,Clear,0,2013-09-29 02:57:00
9:17 PM,32.0,28.4,87,30.45,10.0,Calm,Calm,-,N/A,,Clear,0,2013-09-29 03:17:00
9:37 PM,32.0,28.4,87,30.45,10.0,Calm,Calm,-,N/A,,Clear,0,2013-09-29 03:37:00
9:57 PM,32.0,28.4,87,30.45,10.0,Calm,Calm,-,N/A,,Clear,0,2013-09-29 03:57:00
10:17 PM,32.0,30.2,93,30.45,10.0,Calm,Calm,-,N/A,,Clear,0,2013-09-29 04:17:00
10:36 PM,32.0,28.4,87,30.45,10.0,Calm,Calm,-,N/A,,Clear,0,2013-09-29 04:36:00
10:57 PM,32.0,28.4,87,30.44,10.0,Calm,Calm,-,N/A,,Clear,0,2013-09-29 04:57:00
11:17 PM,32.0,28.4,87,30.44,10.0,Calm,Calm,-,N/A,,Clear,0,2013-09-29 05:17:00
11:37 PM,32.0,28.4,87,30.44,10.0,Calm,Calm,-,N/A,,Clear,0,2013-09-29 05:37:00
11:56 PM,32.0,26.6,80,30.44,10.0,Calm,Calm,-,N/A,,Clear,0,2013-09-29 05:56:00